Time;durP1;ratioP1;P1;durP2;ratioP2;P2;SDS_P1;SDS_P2;PMS_P1;PMS_P2;Temp;Humidity;BMP_temperature;BMP_pressure;BME280_temperature;BME280_humidity;BME280_pressure;Samples;Min_cycle;Max_cycle;Signal;HPM_P1;HPM_P2
2023/01/13 00:01:07;;;;;;;9.70;6.22;;;;;;;5.70;78.26;99771.09;5032601;28;20076;-70
2023/01/13 00:03:33;;;;;;;10.45;6.15;;;;;;;5.78;78.00;99777.94;5031867;28;20059;-71
2023/01/13 00:05:59;;;;;;;8.73;6.20;;;;;;;5.82;78.80;99776.22;5033454;28;20053;-70
2023/01/13 00:08:24;;;;;;;9.05;6.55;;;;;;;5.95;78.01;99779.41;5033347;28;20046;-70
2023/01/13 00:10:50;;;;;;;7.95;5.00;;;;;;;5.95;78.64;99776.63;5032175;28;20032;-70
2023/01/13 00:13:15;;;;;;;10.13;5.55;;;;;;;5.83;78.71;99775.09;5033370;28;20022;-71
2023/01/13 00:15:41;;;;;;;7.65;5.65;;;;;;;5.93;78.90;99774.16;5032586;28;20017;-71
2023/01/13 00:18:07;;;;;;;8.13;5.95;;;;;;;5.91;78.06;99762.50;5033269;28;20060;-71
2023/01/13 00:20:32;;;;;;;9.20;5.88;;;;;;;5.94;78.09;99773.03;5033238;28;20053;-70
2023/01/13 00:22:59;;;;;;;8.70;5.88;;;;;;;6.00;77.75;99766.28;5033141;28;20525;-71
2023/01/13 00:25:24;;;;;;;9.55;5.85;;;;;;;6.20;77.14;99783.00;5033333;28;20500;-71
2023/01/13 00:27:50;;;;;;;7.63;5.50;;;;;;;6.02;77.41;99774.34;5031885;28;20064;-70
2023/01/13 00:30:16;;;;;;;10.75;6.07;;;;;;;6.01;76.81;99778.22;5032563;28;20028;-71
2023/01/13 00:32:41;;;;;;;7.93;5.63;;;;;;;6.08;76.10;99775.09;5033084;28;20091;-70
2023/01/13 00:35:07;;;;;;;8.00;5.22;;;;;;;6.06;76.71;99775.41;5033095;28;20018;-71
2023/01/13 00:37:35;;;;;;;10.18;6.53;;;;;;;6.02;76.29;99780.72;5032761;28;20013;-71
2023/01/13 00:40:01;;;;;;;6.90;5.00;;;;;;;5.99;76.98;99778.50;5033002;28;20021;-71
2023/01/13 00:45:10;;;;;;;7.20;5.22;;;;;;;6.01;76.26;99781.84;5025297;28;20040;-71
2023/01/13 00:47:36;;;;;;;6.35;5.05;;;;;;;5.79;76.82;99770.41;5032683;28;20029;-71
2023/01/13 00:50:01;;;;;;;8.90;5.15;;;;;;;5.78;77.28;99774.31;5032811;28;20500;-71
2023/01/13 00:52:27;;;;;;;7.80;5.72;;;;;;;5.72;77.80;99776.31;5032878;28;20048;-70
2023/01/13 00:54:52;;;;;;;9.07;6.10;;;;;;;5.65;77.31;99770.31;5032637;28;20079;-70
2023/01/13 00:57:18;;;;;;;10.52;6.00;;;;;;;5.83;77.91;99771.50;5031704;28;20021;-71
2023/01/13 00:59:43;;;;;;;10.02;5.78;;;;;;;5.55;78.29;99765.69;5031543;28;20071;-71
2023/01/13 01:02:08;;;;;;;8.63;5.85;;;;;;;5.62;78.65;99768.94;5031171;28;20029;-71
2023/01/13 01:04:34;;;;;;;7.82;5.05;;;;;;;5.66;78.23;99767.22;5032177;28;20029;-70
2023/01/13 01:06:59;;;;;;;8.88;5.80;;;;;;;5.58;78.59;99759.56;5031108;28;20052;-72
2023/01/13 01:09:31;;;;;;;8.63;5.88;;;;;;;5.55;78.30;99763.75;5032234;28;20029;-71
2023/01/13 01:11:58;;;;;;;9.15;6.53;;;;;;;5.59;78.40;99764.00;5030224;28;20448;-71
2023/01/13 01:14:23;;;;;;;7.93;5.68;;;;;;;5.63;78.27;99767.81;5032348;28;20044;-71
2023/01/13 01:16:49;;;;;;;8.20;5.45;;;;;;;5.62;78.52;99775.34;5032233;28;20599;-70
2023/01/13 01:19:14;;;;;;;10.40;5.70;;;;;;;5.64;78.43;99771.44;5031966;28;20068;-70
2023/01/13 01:21:39;;;;;;;6.50;4.85;;;;;;;5.62;78.02;99771.72;5032314;28;20052;-70
2023/01/13 01:24:05;;;;;;;8.27;5.68;;;;;;;5.59;78.61;99764.00;5032034;28;20096;-71
2023/01/13 01:26:31;;;;;;;8.65;5.57;;;;;;;5.58;78.21;99754.81;5031112;28;20052;-71
2023/01/13 01:28:58;;;;;;;8.60;5.25;;;;;;;5.65;78.37;99765.56;5030628;28;20026;-70
2023/01/13 01:31:26;;;;;;;7.30;5.50;;;;;;;5.78;77.99;99763.22;5031671;28;20033;-70
2023/01/13 01:33:53;;;;;;;8.50;5.40;;;;;;;5.66;78.45;99760.88;5031853;28;20021;-70
2023/01/13 01:36:21;;;;;;;6.47;4.88;;;;;;;5.53;78.38;99756.84;5030379;28;20025;-70
2023/01/13 01:38:48;;;;;;;7.90;5.25;;;;;;;5.57;78.88;99763.47;5031702;28;20480;-71
2023/01/13 01:41:22;;;;;;;8.38;5.30;;;;;;;5.58;78.29;99762.34;5030867;28;20032;-71
2023/01/13 01:44:03;;;;;;;8.05;6.10;;;;;;;5.50;79.18;99763.81;5031765;28;20026;-70
2023/01/13 01:46:36;;;;;;;7.75;6.63;;;;;;;5.43;80.11;99755.00;5030417;28;20086;-71
2023/01/13 01:49:19;;;;;;;8.40;6.72;;;;;;;5.56;79.72;99754.31;5031605;28;20017;-71
2023/01/13 01:51:50;;;;;;;8.50;5.53;;;;;;;5.59;79.37;99753.69;5031785;28;20063;-71
2023/01/13 01:54:21;;;;;;;7.55;5.95;;;;;;;5.53;79.71;99763.22;5030892;28;20025;-71
2023/01/13 01:56:47;;;;;;;11.65;7.95;;;;;;;5.60;79.76;99758.13;5031659;28;20335;-70
2023/01/13 01:59:14;;;;;;;8.02;5.95;;;;;;;5.52;80.29;99760.72;5031506;28;20056;-70
2023/01/13 02:01:42;;;;;;;8.05;5.88;;;;;;;5.48;80.26;99755.78;5029721;28;20035;-71
2023/01/13 02:04:19;;;;;;;8.60;5.50;;;;;;;5.48;80.18;99750.22;5031376;28;20075;-71
2023/01/13 02:06:46;;;;;;;9.32;6.60;;;;;;;5.57;80.47;99760.69;5027629;28;20161;-70
2023/01/13 02:09:12;;;;;;;7.88;5.90;;;;;;;5.44;81.06;99757.50;5031194;28;20026;-71
2023/01/13 02:14:26;;;;;;;8.23;5.57;;;;;;;5.63;80.09;99751.16;5031358;28;20533;-70
2023/01/13 02:17:12;;;;;;;7.85;5.75;;;;;;;5.72;79.62;99759.66;5030370;28;20029;-71
2023/01/13 02:20:31;;;;;;;6.70;4.95;;;;;;;5.85;78.84;99758.97;5015362;28;20049;-71
2023/01/13 02:26:50;;;;;;;7.43;5.65;;;;;;;5.83;78.87;99763.16;5031376;28;20052;-70
2023/01/13 02:32:52;;;;;;;7.15;5.53;;;;;;;5.75;78.62;99768.25;5031052;28;20072;-71
2023/01/13 02:35:26;;;;;;;7.10;5.38;;;;;;;5.62;78.90;99763.41;5030198;28;20183;-70
2023/01/13 02:37:54;;;;;;;7.95;5.72;;;;;;;5.53;79.24;99766.00;5031217;28;20033;-70
2023/01/13 02:40:30;;;;;;;8.27;6.10;;;;;;;5.52;79.96;99769.06;5030898;28;20044;-70
2023/01/13 02:46:15;;;;;;;8.90;5.47;;;;;;;5.46;79.87;99766.34;5024191;28;20044;-71
2023/01/13 02:48:44;;;;;;;7.45;5.80;;;;;;;5.45;79.73;99780.50;5029466;28;20084;-70
2023/01/13 02:51:18;;;;;;;6.97;5.18;;;;;;;5.48;80.12;99777.97;5029734;28;20087;-70
2023/01/13 02:53:55;;;;;;;9.93;6.47;;;;;;;5.48;79.27;99783.53;5030937;28;20087;-72
2023/01/13 02:56:23;;;;;;;9.05;5.97;;;;;;;5.34;79.86;99779.78;5030790;28;20036;-70
2023/01/13 02:58:50;;;;;;;8.25;5.53;;;;;;;5.42;79.95;99783.88;5030931;28;20014;-70
2023/01/13 03:01:16;;;;;;;8.10;5.65;;;;;;;5.63;79.62;99787.25;5027276;28;20029;-70
2023/01/13 03:03:43;;;;;;;8.50;5.78;;;;;;;5.58;78.45;99785.34;5030863;28;20412;-71
2023/01/13 03:06:43;;;;;;;11.13;6.28;;;;;;;5.79;77.95;99792.63;5030671;28;20029;-70
2023/01/13 03:09:35;;;;;;;8.07;5.68;;;;;;;5.55;78.58;99794.28;5034519;28;20087;-70
2023/01/13 03:12:19;;;;;;;7.78;5.47;;;;;;;5.60;78.69;99785.06;5034563;28;20033;-71
2023/01/13 03:14:58;;;;;;;8.18;5.45;;;;;;;5.50;78.92;99791.56;5034528;28;20443;-70
2023/01/13 03:17:54;;;;;;;7.57;5.40;;;;;;;5.51;79.31;99792.38;5033635;28;20017;-70
2023/01/13 03:20:31;;;;;;;8.63;5.95;;;;;;;5.52;78.86;99783.78;5022046;28;20104;-70
2023/01/13 03:23:43;;;;;;;7.10;5.47;;;;;;;5.31;79.06;99786.75;5034460;28;20562;-70
2023/01/13 03:26:29;;;;;;;9.25;6.90;;;;;;;5.44;79.10;99788.00;5032758;28;20049;-71
2023/01/13 03:29:26;;;;;;;10.90;6.78;;;;;;;5.51;79.65;99790.44;5033140;28;20032;-71
2023/01/13 03:32:01;;;;;;;8.75;6.70;;;;;;;5.46;78.98;99779.38;5014500;28;20489;-70
2023/01/13 03:34:44;;;;;;;13.20;7.03;;;;;;;5.60;79.16;99794.22;5013076;28;20060;-70
2023/01/13 03:37:13;;;;;;;10.32;6.72;;;;;;;5.74;78.41;99791.56;5014456;28;20029;-70
2023/01/13 03:39:44;;;;;;;11.43;7.32;;;;;;;5.78;78.28;99774.31;5015190;28;20500;-71
2023/01/13 03:42:19;;;;;;;13.68;8.32;;;;;;;5.82;77.91;99787.31;5034089;28;20040;-70
2023/01/13 03:44:54;;;;;;;10.07;7.28;;;;;;;5.97;77.57;99782.69;5032859;28;20546;-71
2023/01/13 03:47:43;;;;;;;13.95;8.35;;;;;;;6.15;76.81;99790.28;5029889;28;20484;-70
2023/01/13 03:50:18;;;;;;;10.43;7.05;;;;;;;6.02;76.88;99793.78;5033772;28;20021;-71
2023/01/13 03:52:47;;;;;;;8.15;6.30;;;;;;;5.99;77.00;99781.28;5032994;28;20021;-71
2023/01/13 03:55:19;;;;;;;9.37;7.17;;;;;;;5.83;76.88;99793.72;5033810;28;20431;-71
2023/01/13 03:57:52;;;;;;;11.45;7.93;;;;;;;5.80;76.94;99799.84;5032583;28;20443;-71
2023/01/13 04:00:24;;;;;;;11.70;7.10;;;;;;;5.80;77.47;99791.53;5033567;28;20072;-71
2023/01/13 04:03:17;;;;;;;9.73;7.90;;;;;;;5.79;77.43;99806.50;5032491;28;20030;-70
2023/01/13 04:05:46;;;;;;;8.38;6.97;;;;;;;5.60;78.15;99796.16;5031755;28;20120;-70
2023/01/13 04:08:22;;;;;;;7.45;6.00;;;;;;;5.61;77.78;99798.66;5032366;28;20045;-71
2023/01/13 04:11:11;;;;;;;7.90;5.43;;;;;;;5.75;77.82;99792.41;5033521;28;20037;-70
2023/01/13 04:13:40;;;;;;;9.73;6.40;;;;;;;5.66;77.46;99799.72;5031271;28;20561;-70
2023/01/13 04:16:07;;;;;;;9.50;6.65;;;;;;;5.59;77.82;99805.63;5033037;28;20427;-71
2023/01/13 04:18:36;;;;;;;8.95;6.80;;;;;;;5.46;78.60;99813.50;5032866;28;20022;-71
2023/01/13 04:21:02;;;;;;;9.27;5.63;;;;;;;5.54;78.21;99798.16;5031007;28;20408;-71
2023/01/13 04:23:28;;;;;;;11.38;6.35;;;;;;;5.59;77.49;99811.16;5033255;28;20068;-71
2023/01/13 04:25:54;;;;;;;8.13;5.28;;;;;;;5.64;77.66;99813.88;5033018;28;20026;-71
2023/01/13 04:28:20;;;;;;;8.60;5.78;;;;;;;5.54;77.37;99813.97;5033354;28;20105;-70
2023/01/13 04:30:46;;;;;;;6.05;4.90;;;;;;;5.47;77.74;99815.16;5033086;28;20080;-70
2023/01/13 04:33:13;;;;;;;5.82;4.60;;;;;;;5.45;78.03;99811.03;5031773;28;20021;-71
2023/01/13 04:35:39;;;;;;;6.85;5.43;;;;;;;5.46;77.92;99810.75;5032357;28;20538;-71
2023/01/13 04:38:08;;;;;;;7.15;5.18;;;;;;;5.43;77.58;99814.09;5033000;28;20021;-70
2023/01/13 04:40:34;;;;;;;7.60;4.80;;;;;;;5.45;77.67;99800.75;5032514;28;20079;-70
2023/01/13 04:42:59;;;;;;;8.68;5.80;;;;;;;5.58;77.29;99809.53;5031585;28;20033;-70
2023/01/13 04:45:25;;;;;;;8.65;5.93;;;;;;;5.50;77.51;99804.59;5031419;28;20031;-72
2023/01/13 04:47:50;;;;;;;13.25;8.25;;;;;;;5.46;78.09;99813.50;5032696;28;20116;-70
2023/01/13 04:50:19;;;;;;;14.27;9.20;;;;;;;5.33;78.51;99803.09;5025790;28;20025;-70
2023/01/13 04:52:49;;;;;;;16.13;8.93;;;;;;;5.46;78.26;99813.50;5012868;28;20076;-71
2023/01/13 04:55:15;;;;;;;12.55;7.25;;;;;;;5.37;78.76;99826.34;5027076;28;20401;-70
2023/01/13 04:57:41;;;;;;;13.73;8.13;;;;;;;5.43;78.21;99825.19;5031239;28;20030;-70
2023/01/13 05:00:08;;;;;;;11.90;9.07;;;;;;;5.34;78.57;99819.44;5031136;28;20041;-70
2023/01/13 05:02:33;;;;;;;19.58;8.85;;;;;;;5.30;78.99;99814.75;5032491;28;20026;-70
2023/01/13 05:04:59;;;;;;;14.70;10.20;;;;;;;5.30;78.92;99811.97;5031754;28;20428;-71
2023/01/13 05:07:25;;;;;;;12.23;8.50;;;;;;;5.44;78.52;99824.09;5032117;28;20111;-70
2023/01/13 05:09:50;;;;;;;15.48;11.18;;;;;;;5.52;78.33;99830.09;5031048;28;20035;-70
2023/01/13 05:17:44;;;;;;;20.55;13.88;;;;;;;5.82;76.30;99826.19;5032169;28;20029;-70
2023/01/13 05:20:10;;;;;;;19.58;12.30;;;;;;;5.94;76.14;99839.66;5022565;28;20024;-70
2023/01/13 05:25:21;;;;;;;9.57;6.93;;;;;;;5.90;75.80;99844.97;5031742;28;20514;-70
2023/01/13 05:27:52;;;;;;;7.70;6.22;;;;;;;5.96;76.35;99847.69;5030508;28;20033;-71
2023/01/13 05:30:19;;;;;;;11.45;7.47;;;;;;;5.93;76.74;99842.72;5019675;28;20037;-71
2023/01/13 05:32:44;;;;;;;17.30;11.57;;;;;;;5.88;76.74;99843.63;5031948;28;20577;-70
2023/01/13 05:35:10;;;;;;;30.27;22.75;;;;;;;5.78;76.69;99830.69;5031009;28;20037;-70
2023/01/13 05:37:35;;;;;;;20.10;15.27;;;;;;;5.79;76.93;99848.16;5029764;28;20028;-70
2023/01/13 05:45:30;;;;;;;30.15;17.25;;;;;;;5.55;77.97;99848.94;5031834;28;20040;-70
2023/01/13 05:47:56;;;;;;;13.52;8.93;;;;;;;5.56;77.71;99850.63;5029161;28;20389;-71
2023/01/13 05:50:22;;;;;;;13.63;7.88;;;;;;;5.56;77.67;99850.63;5011803;28;20026;-73
2023/01/13 05:52:48;;;;;;;14.57;8.00;;;;;;;5.56;77.58;99853.38;5011991;28;20030;-71
2023/01/13 05:55:13;;;;;;;21.35;12.25;;;;;;;5.48;78.57;99852.88;5011969;28;20028;-72
2023/01/13 05:57:39;;;;;;;48.53;21.48;;;;;;;5.40;78.15;99852.69;5010561;28;20021;-71
2023/01/13 06:00:06;;;;;;;59.10;25.17;;;;;;;5.30;78.57;99854.44;5013357;28;20018;-71
2023/01/13 06:02:31;;;;;;;46.70;21.00;;;;;;;5.09;79.32;99853.78;5030000;28;20083;-71
2023/01/13 06:04:57;;;;;;;56.22;23.75;;;;;;;5.20;79.79;99854.50;5031147;28;20033;-73
2023/01/13 06:07:22;;;;;;;53.92;25.05;;;;;;;5.11;80.45;99859.00;5031134;28;20496;-72
2023/01/13 06:09:47;;;;;;;65.85;30.67;;;;;;;5.22;80.29;99865.31;5031076;28;20017;-73
2023/01/13 06:12:13;;;;;;;67.50;26.20;;;;;;;5.10;80.11;99860.13;5028194;28;20582;-71
2023/01/13 06:14:39;;;;;;;116.55;56.85;;;;;;;5.09;79.99;99873.19;5030677;28;20530;-71
2023/01/13 06:17:09;;;;;;;73.30;34.72;;;;;;;5.01;80.79;99877.41;5029326;28;20029;-71
2023/01/13 06:19:35;;;;;;;75.60;34.85;;;;;;;5.06;80.88;99885.69;5031206;28;20531;-69
2023/01/13 06:22:31;;;;;;;63.40;32.97;;;;;;;5.06;81.29;99893.16;5030475;28;20031;-72
2023/01/13 06:24:58;;;;;;;64.30;31.92;;;;;;;4.96;82.10;99882.97;5036711;28;20462;-70
2023/01/13 06:27:23;;;;;;;78.43;38.25;;;;;;;5.08;82.05;99888.16;5039940;28;20031;-70
2023/01/13 06:29:49;;;;;;;112.93;49.13;;;;;;;5.26;81.44;99871.94;5030670;28;20540;-70
2023/01/13 06:32:18;;;;;;;93.18;42.83;;;;;;;5.44;80.53;99893.44;5030069;28;20381;-71
2023/01/13 06:34:48;;;;;;;66.27;33.37;;;;;;;5.50;80.77;99890.63;5031073;28;20036;-69
2023/01/13 06:37:18;;;;;;;75.43;39.05;;;;;;;5.67;80.06;99887.41;5025184;28;20451;-72
2023/01/13 06:39:44;;;;;;;93.43;43.40;;;;;;;5.58;79.36;99890.00;5028091;28;20055;-70
2023/01/13 06:44:54;;;;;;;88.88;34.20;;;;;;;5.62;79.64;99893.84;5033679;28;20538;-70
2023/01/13 06:47:21;;;;;;;101.25;39.83;;;;;;;5.67;79.35;99887.41;5032488;28;20061;-74
2023/01/13 06:49:47;;;;;;;72.47;31.83;;;;;;;5.52;79.72;99892.00;5034821;28;20527;-72
2023/01/13 06:52:13;;;;;;;55.25;28.95;;;;;;;5.64;79.73;99894.38;5032975;28;20040;-73
2023/01/13 06:54:39;;;;;;;40.13;21.70;;;;;;;5.70;78.92;99900.69;5033789;28;20025;-71
2023/01/13 06:57:04;;;;;;;35.47;20.88;;;;;;;5.70;78.89;99901.53;5026737;28;20033;-73
2023/01/13 06:59:33;;;;;;;31.40;19.40;;;;;;;5.86;77.92;99904.16;5032653;28;20028;-70
2023/01/13 07:01:58;;;;;;;28.42;16.80;;;;;;;5.80;77.88;99894.25;5021374;28;20025;-76
2023/01/13 07:04:24;;;;;;;29.50;18.65;;;;;;;5.83;77.89;99911.13;5030604;28;20028;-78
2023/01/13 07:06:49;;;;;;;31.77;20.20;;;;;;;5.70;77.71;99901.53;5032932;28;20035;-74
2023/01/13 07:09:17;;;;;;;32.85;14.77;;;;;;;5.67;77.30;99904.06;5027123;28;20075;-78
2023/01/13 07:11:43;;;;;;;30.17;18.45;;;;;;;5.60;78.22;99901.63;5032861;28;20021;-71
2023/01/13 07:16:53;;;;;;;26.75;15.90;;;;;;;5.61;79.18;99904.13;5028076;28;20754;-71
2023/01/13 07:19:22;;;;;;;33.45;15.45;;;;;;;5.47;79.57;99898.41;5032621;28;20026;-72
2023/01/13 07:21:49;;;;;;;27.13;15.27;;;;;;;5.55;79.48;99908.03;5032298;28;20104;-72
2023/01/13 07:24:15;;;;;;;26.55;12.27;;;;;;;5.45;78.79;99908.13;5030507;28;20459;-74
2023/01/13 07:26:40;;;;;;;23.27;12.27;;;;;;;5.43;78.55;99904.81;5032145;28;20056;-74
2023/01/13 07:29:06;;;;;;;22.40;11.95;;;;;;;5.51;78.12;99912.53;5031595;28;20037;-73
2023/01/13 07:31:31;;;;;;;16.50;11.65;;;;;;;5.51;78.03;99914.47;5032044;28;20029;-73
2023/01/13 07:33:56;;;;;;;21.35;12.95;;;;;;;5.41;78.31;99905.09;5031793;28;20357;-73
2023/01/13 07:36:22;;;;;;;18.98;12.35;;;;;;;5.40;77.66;99900.66;5029451;28;20029;-79
2023/01/13 07:38:47;;;;;;;14.88;10.40;;;;;;;5.43;78.50;99915.91;5029068;28;20028;-73
2023/01/13 07:43:59;;;;;;;43.50;21.05;;;;;;;5.67;77.74;99912.41;5031390;28;20087;-74
2023/01/13 07:46:25;;;;;;;36.13;17.40;;;;;;;5.74;78.02;99908.16;5025930;28;20595;-74
2023/01/13 07:48:50;;;;;;;34.20;17.23;;;;;;;5.83;76.69;99915.84;5028889;28;20108;-74
2023/01/13 07:51:16;;;;;;;16.67;9.35;;;;;;;5.95;75.51;99923.78;5028697;28;20389;-71
2023/01/13 07:53:41;;;;;;;10.82;7.65;;;;;;;5.89;75.07;99918.28;5012598;28;20040;-75
2023/01/13 07:56:07;;;;;;;18.35;11.02;;;;;;;6.24;76.50;99928.53;5010143;28;20113;-71
2023/01/13 07:58:35;;;;;;;15.82;9.85;;;;;;;6.17;75.15;99910.25;5016397;28;20040;-73
2023/01/13 08:01:07;;;;;;;25.20;11.15;;;;;;;6.30;75.38;99935.66;5025217;28;20033;-74
2023/01/13 08:03:33;;;;;;;14.68;7.03;;;;;;;6.29;74.30;99934.88;5028851;28;20029;-73
2023/01/13 08:06:00;;;;;;;6.65;5.75;;;;;;;6.38;73.60;99925.84;5024249;28;20080;-73
2023/01/13 08:08:25;;;;;;;21.48;10.15;;;;;;;6.05;75.57;99926.50;5020282;28;20144;-72
2023/01/13 08:10:51;;;;;;;11.43;7.32;;;;;;;6.48;75.18;99936.03;5026939;28;20393;-75
2023/01/13 08:13:20;;;;;;;14.75;10.35;;;;;;;6.53;74.88;99934.03;5022004;28;20029;-74
2023/01/13 08:15:51;;;;;;;23.42;11.18;;;;;;;6.80;74.32;99937.28;5024423;28;20519;-73
2023/01/13 08:18:20;;;;;;;25.05;10.27;;;;;;;6.22;75.06;99939.94;5027710;28;20515;-72
2023/01/13 08:20:47;;;;;;;11.52;7.13;;;;;;;6.16;75.81;99933.59;5025569;28;20036;-73
2023/01/13 08:23:13;;;;;;;22.88;11.30;;;;;;;6.08;76.36;99942.56;5014428;28;20034;-71
2023/01/13 08:25:39;;;;;;;20.67;9.50;;;;;;;6.04;77.14;99938.72;5022419;28;20037;-70
2023/01/13 08:28:04;;;;;;;34.65;9.48;;;;;;;6.29;76.21;99945.97;5026222;28;20029;-79
2023/01/13 08:30:30;;;;;;;22.98;9.30;;;;;;;6.25;75.19;99933.78;5026166;28;20413;-73
2023/01/13 08:32:55;;;;;;;31.52;9.73;;;;;;;6.08;75.27;99925.91;5009417;28;20026;-73
2023/01/13 08:35:21;;;;;;;14.70;7.80;;;;;;;6.02;74.19;99941.78;5010879;28;20088;-77
2023/01/13 08:37:47;;;;;;;8.40;5.97;;;;;;;6.06;75.19;99930.13;5027719;28;20116;-74
2023/01/13 08:40:14;;;;;;;14.48;7.95;;;;;;;6.38;76.04;99926.69;5031973;28;20090;-73
2023/01/13 08:42:40;;;;;;;29.95;16.20;;;;;;;6.44;74.61;99933.03;5029764;28;20386;-73
2023/01/13 08:45:08;;;;;;;21.52;14.77;;;;;;;6.41;74.57;99928.06;5025091;28;20073;-71
2023/01/13 08:47:34;;;;;;;17.85;10.05;;;;;;;6.60;74.42;99933.66;5026568;28;20529;-72
2023/01/13 08:50:00;;;;;;;11.48;7.38;;;;;;;6.67;73.90;99939.69;5028498;28;20033;-73
2023/01/13 08:52:25;;;;;;;8.98;4.55;;;;;;;6.60;71.51;99945.59;5019975;28;20041;-72
2023/01/13 08:54:50;;;;;;;14.57;8.60;;;;;;;6.84;72.46;99930.03;5025914;28;20139;-75
2023/01/13 08:57:18;;;;;;;17.08;10.00;;;;;;;7.00;71.10;99933.44;5017456;28;20029;-74
2023/01/13 08:59:45;;;;;;;6.93;5.25;;;;;;;6.78;70.79;99934.84;5016303;28;20168;-75
2023/01/13 09:02:16;;;;;;;9.00;6.03;;;;;;;6.79;70.63;99936.50;5024025;28;20033;-75
2023/01/13 09:04:42;;;;;;;8.40;6.07;;;;;;;6.77;72.02;99929.56;5026944;28;20120;-73
2023/01/13 09:07:08;;;;;;;26.40;11.65;;;;;;;6.81;72.08;99928.66;5029088;28;20467;-72
2023/01/13 09:09:34;;;;;;;17.10;10.00;;;;;;;6.85;72.05;99932.50;5018780;28;20034;-72
2023/01/13 09:14:45;;;;;;;20.80;10.23;;;;;;;7.26;72.58;99913.59;5029622;28;20048;-73
2023/01/13 09:17:10;;;;;;;16.95;8.95;;;;;;;7.19;69.81;99924.25;5028721;28;20505;-72
2023/01/13 09:19:36;;;;;;;10.50;6.55;;;;;;;7.27;69.40;99913.25;5029291;28;20441;-75
2023/01/13 09:22:02;;;;;;;10.80;6.00;;;;;;;7.63;70.33;99913.81;5024621;28;20037;-73
2023/01/13 09:24:28;;;;;;;8.90;5.78;;;;;;;7.67;69.21;99910.13;5026418;28;20033;-73
2023/01/13 09:26:53;;;;;;;9.02;5.20;;;;;;;7.60;69.55;99901.31;5028128;28;20060;-72
2023/01/13 09:29:19;;;;;;;8.80;6.75;;;;;;;7.41;69.07;99915.28;5022679;28;20481;-74
2023/01/13 09:31:45;;;;;;;8.25;5.40;;;;;;;7.54;68.72;99908.13;5018036;28;20117;-74
2023/01/13 09:37:02;;;;;;;7.55;4.50;;;;;;;7.88;68.21;99901.41;5012440;28;20041;-71
2023/01/13 09:39:28;;;;;;;8.57;5.97;;;;;;;7.87;66.37;99899.75;5020713;28;20546;-71
2023/01/13 09:45:20;;;;;;;7.68;5.50;;;;;;;7.92;69.42;99896.88;5019285;28;20055;-70
2023/01/13 09:47:45;;;;;;;9.88;6.88;;;;;;;8.35;69.03;99898.56;4988819;28;20053;-71
2023/01/13 09:50:46;;;;;;;11.40;5.43;;;;;;;8.29;68.37;99891.44;5022747;28;20496;-71
2023/01/13 09:53:20;;;;;;;31.58;6.53;;;;;;;8.23;67.89;99882.38;5038470;28;20142;-73
2023/01/13 09:55:46;;;;;;;12.85;6.18;;;;;;;8.14;66.79;99887.00;5021168;28;20026;-72
2023/01/13 09:58:18;;;;;;;10.02;4.80;;;;;;;8.05;67.65;99891.63;5010351;28;20029;-69
2023/01/13 10:01:17;;;;;;;10.73;5.28;;;;;;;8.43;68.88;99886.69;5023428;28;20067;-73
2023/01/13 10:03:43;;;;;;;8.73;5.40;;;;;;;7.98;67.09;99880.88;5015431;28;20052;-72
2023/01/13 10:06:22;;;;;;;11.13;5.57;;;;;;;8.39;67.88;99882.88;5029777;28;20033;-71
2023/01/13 10:08:49;;;;;;;11.73;5.57;;;;;;;8.46;67.14;99871.31;5030050;28;20073;-70
2023/01/13 10:14:27;;;;;;;8.52;4.85;;;;;;;8.75;65.03;99874.91;5030260;28;20040;-71
2023/01/13 10:17:11;;;;;;;11.27;8.35;;;;;;;8.87;64.03;99866.84;5029735;28;20052;-72
2023/01/13 10:19:56;;;;;;;10.73;5.88;;;;;;;9.12;65.20;99859.00;5024985;28;20079;-74
2023/01/13 10:22:37;;;;;;;5.80;4.50;;;;;;;9.39;63.18;99852.47;5022948;28;20042;-72
2023/01/13 10:25:21;;;;;;;9.35;6.53;;;;;;;9.19;65.15;99855.78;5029595;28;20025;-75
2023/01/13 10:27:49;;;;;;;8.93;5.82;;;;;;;8.63;62.99;99855.94;5016689;28;20096;-78
2023/01/13 10:30:20;;;;;;;8.43;5.75;;;;;;;8.55;64.69;99851.91;5018729;28;20113;-79
2023/01/13 10:32:57;;;;;;;8.65;5.47;;;;;;;8.61;65.29;99844.28;5016473;28;20021;-76
2023/01/13 10:35:48;;;;;;;11.48;5.55;;;;;;;8.78;64.21;99846.41;5028849;28;20523;-74
2023/01/13 10:38:24;;;;;;;6.70;5.05;;;;;;;9.45;63.98;99839.19;5020008;28;20022;-75
2023/01/13 10:40:57;;;;;;;11.95;5.93;;;;;;;9.48;63.72;99834.97;5017828;28;20632;-73
2023/01/13 10:43:24;;;;;;;7.93;5.45;;;;;;;9.92;61.07;99841.63;5023854;28;20022;-75
2023/01/13 10:46:01;;;;;;;8.68;5.10;;;;;;;10.06;62.20;99844.28;5027733;28;20147;-74
2023/01/13 10:48:36;;;;;;;8.70;6.30;;;;;;;9.87;62.76;99833.34;5018228;28;20060;-76
2023/01/13 10:51:26;;;;;;;7.30;5.22;;;;;;;10.02;61.97;99828.50;5025184;28;20041;-77
2023/01/13 10:53:59;;;;;;;9.25;6.05;;;;;;;9.81;61.76;99829.06;5025213;28;20029;-77
2023/01/13 10:56:30;;;;;;;6.60;4.68;;;;;;;9.49;62.31;99825.44;5027147;28;20508;-74
2023/01/13 10:59:21;;;;;;;6.97;4.95;;;;;;;9.93;59.90;99828.44;5028381;28;20485;-77
2023/01/13 11:02:02;;;;;;;9.18;4.40;;;;;;;9.79;60.47;99823.78;5026303;28;20038;-78
2023/01/13 11:04:41;;;;;;;20.73;6.07;;;;;;;9.76;61.23;99824.44;5016665;28;20079;-77
2023/01/13 11:07:27;;;;;;;11.50;5.10;;;;;;;8.95;63.04;99824.22;5008045;28;20050;-78
2023/01/13 11:10:21;;;;;;;8.88;6.25;;;;;;;9.36;62.18;99822.41;5008149;28;20018;-73
2023/01/13 11:13:08;;;;;;;7.68;5.45;;;;;;;9.12;61.80;99819.94;5025625;28;20029;-75
2023/01/13 11:15:49;;;;;;;7.15;5.43;;;;;;;9.17;61.22;99818.97;5028802;28;20029;-72
2023/01/13 11:18:39;;;;;;;7.40;5.20;;;;;;;8.99;63.40;99828.06;5019297;28;20432;-73
2023/01/13 11:21:15;;;;;;;10.32;6.90;;;;;;;9.12;66.21;99812.38;5018944;28;20086;-73
2023/01/13 11:23:47;;;;;;;21.52;12.55;;;;;;;8.66;65.92;99816.25;5015057;28;20064;-73
2023/01/13 11:26:20;;;;;;;9.85;7.28;;;;;;;8.94;67.28;99810.63;5025856;28;20026;-73
2023/01/13 11:29:16;;;;;;;9.70;7.07;;;;;;;8.74;65.99;99818.31;5032171;28;20046;-72
2023/01/13 11:31:47;;;;;;;17.13;12.00;;;;;;;9.01;67.52;99810.97;5033326;28;20460;-73
2023/01/13 11:34:24;;;;;;;15.40;11.00;;;;;;;8.95;68.34;99815.06;5033010;28;20029;-73
2023/01/13 11:36:53;;;;;;;11.70;8.10;;;;;;;9.03;68.92;99797.53;5043488;28;20033;-73
2023/01/13 11:39:26;;;;;;;12.38;7.97;;;;;;;9.09;66.74;99806.59;5025250;28;20017;-72
2023/01/13 11:42:23;;;;;;;10.90;7.40;;;;;;;9.02;64.74;99798.69;5026623;28;20037;-73
2023/01/13 11:45:05;;;;;;;11.35;8.10;;;;;;;9.20;65.63;99809.97;5031225;28;20043;-73
2023/01/13 11:47:32;;;;;;;12.57;6.90;;;;;;;9.29;63.95;99802.50;5018963;28;20033;-73
2023/01/13 11:49:58;;;;;;;7.78;5.78;;;;;;;9.28;63.72;99800.81;5025720;28;20025;-73
2023/01/13 11:52:45;;;;;;;17.45;11.60;;;;;;;9.20;69.86;99804.41;5033703;28;20043;-73
2023/01/13 11:55:31;;;;;;;16.52;11.30;;;;;;;9.05;70.18;99789.69;5024129;28;20037;-73
2023/01/13 11:58:21;;;;;;;18.10;11.18;;;;;;;9.14;71.27;99800.91;5031176;28;20025;-73
2023/01/13 12:01:05;;;;;;;18.60;12.45;;;;;;;9.15;69.66;99804.50;5032519;28;20036;-72
2023/01/13 12:03:37;;;;;;;20.08;13.95;;;;;;;9.30;69.65;99790.19;5017294;28;20029;-73
2023/01/13 12:06:25;;;;;;;32.05;18.75;;;;;;;9.36;69.67;99788.09;5026275;28;20069;-73
2023/01/13 12:09:21;;;;;;;38.83;21.38;;;;;;;9.41;69.58;99791.56;5027536;28;20053;-73
2023/01/13 12:12:22;;;;;;;50.80;32.03;;;;;;;9.26;69.86;99791.94;5028514;28;20041;-73
2023/01/13 12:14:58;;;;;;;35.92;22.67;;;;;;;9.30;69.74;99792.97;5028511;28;20034;-73
2023/01/13 12:18:09;;;;;;;21.73;12.38;;;;;;;9.24;69.50;99785.88;5030022;28;20810;-71
2023/01/13 12:20:40;;;;;;;20.65;10.70;;;;;;;9.18;70.16;99784.38;5042861;28;20030;-73
2023/01/13 12:23:25;;;;;;;15.85;10.70;;;;;;;9.07;69.55;99778.19;5036412;28;20032;-72
2023/01/13 12:25:58;;;;;;;26.73;17.60;;;;;;;8.98;70.36;99784.53;5029367;28;20124;-72
2023/01/13 12:28:56;;;;;;;27.65;17.52;;;;;;;9.20;68.86;99787.66;5025000;28;20026;-72
2023/01/13 12:31:23;;;;;;;39.78;20.95;;;;;;;9.47;68.58;99786.69;5033393;28;20037;-70
2023/01/13 12:34:28;;;;;;;130.80;45.83;;;;;;;9.39;68.76;99791.03;5028683;28;20159;-77
2023/01/13 12:36:57;;;;;;;117.88;48.47;;;;;;;9.24;68.68;99783.91;5024846;28;20055;-72
2023/01/13 12:39:27;;;;;;;64.72;26.70;;;;;;;9.27;69.87;99783.25;5026774;28;20021;-71
2023/01/13 12:45:05;;;;;;;18.08;11.43;;;;;;;9.17;69.02;99800.28;5028966;28;19967;-71
2023/01/13 12:47:38;;;;;;;23.48;15.27;;;;;;;9.03;69.65;99803.13;5033913;28;20264;-73